Mitchell City, Louisiana
Current Conditions -  °F | °C
As of 2:55 PM on Thursday 23 Oct 2014 (Local Time) from KBXA Reporting Station
Clear Clear  
Wind Chill: 77°   Ceiling: Unl
Heat Index: 77°   Visibility: 10mi
Dew Point: 40°   Wind: 5mph
Humidity: 27%   Direction: 60°ENE
Pressure: 30.06"   Gusts: NA
Location:  30.7419°N, 89.8828°W
Report Text: KBXA 231955Z AUTO 06004KT 10SM CLR 25/05 A3006 RMK AO2 T02490046
Loading
Personal Weather Stations






























Interactive Weather Map
Tropical Storm Tracking
New forecast layout! Learn more

10-Day Weather Forecast

Advertisements
Track Severe Weather on mobile